Airfield :
LOGIN :

Register | Disclaimer

   EN    FR    IT 

 










Legend :    VFR   Marginal VFR   IFR   Intensive IFR   Very Intensive IFR
Visi :
Ceiling :
>= 8 km
>= 3000ft
5 to 8 km
1000 to 3000 ft
1500m to 5 km
500 to 1000 ft
800 to 1500m
200 to 500 ft
< 800m
< 200 ft
Symbols :   Thunderstorms  Fog  Heavy snow  Heavy precipitations  Wind > 20 kt
SIGMETs :     Misc.  Thunderstorms  Icing  Turbulence  Mountain Waves  Volcanic Ashes






- Airport Elevation : 461 ft
- IATA code : WIE


ETOU - Wiesbaden Army

CURRENT METAR :
  • 181255Z AUTO 27006KT 9999 SCT042 BKN080 12/02 A3005 RMK AO2 SLP181 T01220015 $

EXPIRED METARs :
  • 181155Z AUTO 32008KT 9999 FEW045 BKN080 10/01 A3005 RMK AO2 RAE03 SLP181 P0000 60000 70001 T01040010 10106 20045 51007 $
  • 181103Z AUTO 00000KT 9999 FEW028 BKN060 OVC070 09/02 A3005 RMK AO2 RAE03 SLP181 $
  • 181041Z AUTO 12003KT 9999 -RA SCT028 BKN046 OVC060 09/02 A3005 RMK AO2 RAB41 SLP181 $
  • 181030Z AUTO 11004KT 9999 BKN028 OVC050 09/03 A3005 RMK AO2 CIG 028V050 SLP181 $
  • 180955Z AUTO 36005KT 9999 FEW026 BKN042 BKN050 08/02 A3005 RMK AO2 SLP182 T00840015 $
  • 180855Z AUTO 36005KT 9999 SCT022 SCT030 BKN035 OVC045 08/03 A3003 RMK AO2 SLP175 T00830029 52020 $
  • 180820Z AUTO 33007KT 9999 BKN021 BKN028 OVC038 07/03 A3002 RMK AO2 SLP171 $

TAF TAF ETOU
Valid from the 18 at 12:00 until the 19 at 18:00 UTC


181204Z 1812/1918 36009KT 9000 -SHRA SCT035 BKN050 BKN075 QNH3004INS
BECMG 1816/1817 24006KT 9999 SCT035 BKN050 QNH2995INS
BECMG 1907/1908 23010G15KT 9000 -SHRA SCT010 OVC015 510053 QNH2988INS
BECMG 1912/1913 26015G25KT 9000 -SHRA OVC020 510043 QNH2974INS
BECMG 1915/1916 30020G30KT 9000 -SHRA BKN015 OVC025 510043 QNH2975INS
BECMG 1917/1918 30010G20KT 9999 NSW FEW015 SCT025 BKN040 510043 QNH2978INS TX10/1814Z TN05/1901Z



MET'MAP, your aeronautical weather chart ! - Copyright ORBIFLY December 2007 - Disclaimer

ORBIFLY MET'MAP TEAM :

Programming & Development : Alexandra Zaïnal
Original concept : Baudouin d'Aumeries
Technical & hardware support : Manuel Goepfert
Assistance : Marc-Olivier Méhu




SOURCES & CREDITS :

   NOAA